Time;durP1;ratioP1;P1;durP2;ratioP2;P2;SDS_P1;SDS_P2;PMS_P1;PMS_P2;Temp;Humidity;BMP_temperature;BMP_pressure;BME280_temperature;BME280_humidity;BME280_pressure;Samples;Min_cycle;Max_cycle;Signal;HPM_P1;HPM_P2
2021/08/27 00:02:03;;;;;;;2.43;0.70;;;;;;;;;;4553137;28;20463;-59
2021/08/27 00:04:13;;;;;;;1.00;0.60;;;;;;;;;;4537030;28;20122;-59
2021/08/27 00:06:24;;;;;;;1.20;0.70;;;;;;;;;;4540956;28;20123;-59
2021/08/27 00:08:34;;;;;;;2.27;0.60;;;;;;;;;;4541544;28;20052;-59
2021/08/27 00:10:44;;;;;;;1.67;0.67;;;;;;;;;;4541528;28;20678;-59
2021/08/27 00:12:55;;;;;;;2.27;0.80;;;;;;;;;;4541583;28;20043;-59
2021/08/27 00:15:07;;;;;;;2.50;0.70;;;;;;;;;;4541515;28;20079;-59
2021/08/27 00:17:17;;;;;;;1.58;0.70;;;;;;;;;;4556775;28;20063;-59
2021/08/27 00:19:28;;;;;;;1.23;0.60;;;;;;;;;;4542011;28;20128;-59
2021/08/27 00:21:38;;;;;;;1.47;0.60;;;;;;;;;;4540615;28;29646;-59
2021/08/27 00:23:49;;;;;;;2.40;0.83;;;;;;;;;;4541023;28;20043;-59
2021/08/27 00:25:59;;;;;;;2.37;0.90;;;;;;;;;;4541763;28;20037;-59
2021/08/27 00:28:10;;;;;;;2.13;0.80;;;;;;;;;;4539556;28;20032;-59
2021/08/27 00:30:20;;;;;;;3.37;0.80;;;;;;;;;;4541472;28;20049;-59
2021/08/27 00:32:30;;;;;;;2.33;0.87;;;;;;;;;;4535551;28;20100;-59
2021/08/27 00:34:41;;;;;;;1.50;0.70;;;;;;;;;;4556538;28;30638;-59
2021/08/27 00:36:51;;;;;;;1.87;0.77;;;;;;;;;;4541522;28;20037;-59
2021/08/27 00:39:02;;;;;;;2.43;0.60;;;;;;;;;;4539922;28;20083;-59
2021/08/27 00:41:12;;;;;;;2.40;0.77;;;;;;;;;;4541320;28;21047;-59
2021/08/27 00:43:23;;;;;;;2.00;0.70;;;;;;;;;;4541503;28;20044;-59
2021/08/27 00:45:33;;;;;;;2.03;0.70;;;;;;;;;;4539790;28;20037;-59
2021/08/27 00:47:44;;;;;;;2.40;0.60;;;;;;;;;;4523513;28;20034;-59
2021/08/27 00:49:54;;;;;;;2.00;0.60;;;;;;;;;;4535617;28;20100;-59
2021/08/27 00:52:06;;;;;;;2.00;0.70;;;;;;;;;;4540953;28;20165;-59
2021/08/27 00:54:16;;;;;;;1.38;0.60;;;;;;;;;;4534546;28;20045;-59
2021/08/27 00:56:28;;;;;;;2.58;0.85;;;;;;;;;;4540185;28;20492;-59
2021/08/27 00:58:39;;;;;;;1.60;0.82;;;;;;;;;;4550028;28;20649;-59
2021/08/27 01:00:49;;;;;;;0.93;0.50;;;;;;;;;;4540484;28;30608;-59
2021/08/27 01:03:01;;;;;;;1.63;0.67;;;;;;;;;;4540478;28;32693;-59
2021/08/27 01:05:12;;;;;;;2.58;0.73;;;;;;;;;;4539499;28;20539;-59
2021/08/27 01:07:37;;;;;;;1.05;0.57;;;;;;;;;;4522564;28;20037;-59
2021/08/27 01:09:58;;;;;;;2.67;0.98;;;;;;;;;;4556545;28;20051;-59
2021/08/27 01:12:30;;;;;;;2.55;0.90;;;;;;;;;;4540874;28;20037;-59
2021/08/27 01:14:43;;;;;;;2.28;0.80;;;;;;;;;;4539161;28;20044;-59
2021/08/27 01:16:58;;;;;;;1.80;0.90;;;;;;;;;;4539268;28;20025;-59
2021/08/27 01:19:27;;;;;;;0.73;0.55;;;;;;;;;;4538814;28;20615;-59
2021/08/27 01:21:55;;;;;;;2.97;0.80;;;;;;;;;;4540246;28;20039;-59
2021/08/27 01:24:14;;;;;;;2.33;1.02;;;;;;;;;;4540943;28;20033;-59
2021/08/27 01:26:30;;;;;;;1.63;0.70;;;;;;;;;;4556127;28;20630;-59
2021/08/27 01:28:45;;;;;;;1.63;0.73;;;;;;;;;;4538660;28;20642;-59
2021/08/27 01:31:01;;;;;;;1.63;0.88;;;;;;;;;;4555611;28;20027;-59
2021/08/27 01:33:16;;;;;;;1.33;0.60;;;;;;;;;;4530137;28;20634;-59
2021/08/27 01:35:29;;;;;;;1.45;0.63;;;;;;;;;;4538634;28;20642;-59
2021/08/27 01:37:44;;;;;;;1.55;0.60;;;;;;;;;;4540449;28;20588;-59
2021/08/27 01:39:56;;;;;;;0.93;0.50;;;;;;;;;;4538796;28;20037;-59
2021/08/27 01:42:08;;;;;;;1.45;0.73;;;;;;;;;;4540055;28;20029;-59
2021/08/27 01:44:21;;;;;;;1.95;0.60;;;;;;;;;;4538959;28;20082;-59
2021/08/27 01:46:33;;;;;;;3.97;0.80;;;;;;;;;;4538946;28;20044;-59
2021/08/27 01:48:44;;;;;;;2.58;0.60;;;;;;;;;;4521665;28;20037;-58
2021/08/27 01:50:55;;;;;;;1.70;0.80;;;;;;;;;;4539560;28;20064;-59
2021/08/27 01:53:05;;;;;;;0.80;0.60;;;;;;;;;;4538943;28;22535;-59
2021/08/27 01:55:16;;;;;;;2.17;0.70;;;;;;;;;;4539023;28;20037;-59
2021/08/27 01:57:27;;;;;;;2.73;0.80;;;;;;;;;;4554781;28;20813;-59
2021/08/27 01:59:42;;;;;;;1.90;0.87;;;;;;;;;;4539906;28;20377;-59
2021/08/27 02:01:53;;;;;;;1.58;0.60;;;;;;;;;;4529599;28;20036;-59
2021/08/27 02:04:08;;;;;;;1.43;0.50;;;;;;;;;;4555681;28;20044;-59
2021/08/27 02:06:19;;;;;;;3.00;0.98;;;;;;;;;;4538844;28;20052;-58
2021/08/27 02:08:31;;;;;;;1.30;0.70;;;;;;;;;;4538591;28;20047;-59
2021/08/27 02:10:42;;;;;;;2.25;0.93;;;;;;;;;;4538593;28;20112;-59
2021/08/27 02:12:53;;;;;;;3.08;0.82;;;;;;;;;;4538594;28;20048;-59
2021/08/27 02:15:04;;;;;;;1.80;0.77;;;;;;;;;;4521751;28;20037;-59
2021/08/27 02:17:14;;;;;;;1.45;0.70;;;;;;;;;;4538289;28;20119;-59
2021/08/27 02:19:25;;;;;;;1.97;0.60;;;;;;;;;;4538951;28;37665;-59
2021/08/27 02:21:40;;;;;;;2.10;0.87;;;;;;;;;;4537808;28;36706;-59
2021/08/27 02:23:52;;;;;;;1.92;0.63;;;;;;;;;;4538044;28;20025;-59
2021/08/27 02:26:02;;;;;;;1.80;0.70;;;;;;;;;;4539661;28;20502;-59
2021/08/27 02:28:13;;;;;;;1.63;0.73;;;;;;;;;;4521311;28;20774;-59
2021/08/27 02:30:25;;;;;;;1.77;0.70;;;;;;;;;;4537514;28;20238;-58
2021/08/27 02:32:36;;;;;;;1.52;0.70;;;;;;;;;;4538175;28;20268;-59
2021/08/27 02:34:48;;;;;;;1.65;0.70;;;;;;;;;;4533661;28;20029;-59
2021/08/27 02:36:59;;;;;;;1.15;0.68;;;;;;;;;;4538520;28;20025;-60
2021/08/27 02:39:11;;;;;;;3.45;0.82;;;;;;;;;;4537782;28;20251;-59
2021/08/27 02:41:21;;;;;;;0.90;0.60;;;;;;;;;;4537724;28;20043;-59
2021/08/27 02:43:32;;;;;;;0.93;0.73;;;;;;;;;;4523321;28;20024;-59
2021/08/27 02:45:42;;;;;;;3.03;1.03;;;;;;;;;;4538750;28;31307;-59
2021/08/27 02:47:53;;;;;;;1.10;0.67;;;;;;;;;;4539470;28;20148;-58
2021/08/27 02:50:04;;;;;;;1.93;0.77;;;;;;;;;;4539608;28;20148;-58
2021/08/27 02:52:29;;;;;;;2.35;0.80;;;;;;;;;;4538998;28;20116;-59
2021/08/27 02:54:49;;;;;;;1.52;0.77;;;;;;;;;;4537151;28;20038;-59
2021/08/27 02:57:04;;;;;;;1.15;0.73;;;;;;;;;;4538192;28;20814;-59
2021/08/27 02:59:15;;;;;;;3.35;0.98;;;;;;;;;;4519189;28;20033;-59
2021/08/27 03:01:36;;;;;;;1.85;0.77;;;;;;;;;;4536940;28;20029;-59
2021/08/27 03:04:08;;;;;;;2.60;0.90;;;;;;;;;;4547735;28;20036;-59
2021/08/27 03:06:22;;;;;;;4.53;0.82;;;;;;;;;;4539026;28;20260;-59
2021/08/27 03:08:33;;;;;;;1.77;0.90;;;;;;;;;;4539121;28;20478;-59
2021/08/27 03:10:47;;;;;;;1.50;0.77;;;;;;;;;;4538016;28;20131;-59
2021/08/27 03:13:10;;;;;;;1.92;0.70;;;;;;;;;;4554471;28;20103;-59
2021/08/27 03:15:27;;;;;;;2.65;0.90;;;;;;;;;;4539196;28;20037;-59
2021/08/27 03:17:40;;;;;;;2.97;0.98;;;;;;;;;;4554722;28;20041;-59
2021/08/27 03:19:56;;;;;;;1.95;0.70;;;;;;;;;;4537362;28;20033;-59
2021/08/27 03:22:23;;;;;;;2.85;0.90;;;;;;;;;;4527677;28;20040;-58
2021/08/27 03:24:40;;;;;;;2.92;0.90;;;;;;;;;;4537582;28;20776;-59
2021/08/27 03:26:55;;;;;;;2.03;0.68;;;;;;;;;;4537282;28;20029;-59
2021/08/27 03:29:07;;;;;;;1.92;0.80;;;;;;;;;;4547091;28;20041;-59
2021/08/27 03:31:18;;;;;;;1.65;0.77;;;;;;;;;;4537898;28;20136;-59
2021/08/27 03:33:29;;;;;;;2.40;0.98;;;;;;;;;;4521050;28;20037;-59
2021/08/27 03:35:39;;;;;;;2.77;0.80;;;;;;;;;;4537630;28;20045;-59
2021/08/27 03:37:51;;;;;;;1.07;0.60;;;;;;;;;;4538752;28;20037;-59
2021/08/27 03:40:02;;;;;;;1.85;0.70;;;;;;;;;;4536036;28;20979;-59
2021/08/27 03:42:17;;;;;;;1.88;0.85;;;;;;;;;;4538735;28;20051;-59
2021/08/27 03:44:29;;;;;;;1.90;0.75;;;;;;;;;;4538671;28;20088;-59
2021/08/27 03:46:39;;;;;;;1.90;0.82;;;;;;;;;;4538279;28;20075;-59
2021/08/27 03:48:50;;;;;;;2.17;0.70;;;;;;;;;;4531306;28;20039;-59
2021/08/27 03:51:01;;;;;;;1.43;0.70;;;;;;;;;;4538545;28;20033;-59
2021/08/27 03:53:12;;;;;;;3.00;1.02;;;;;;;;;;4503747;28;20140;-58
2021/08/27 03:55:23;;;;;;;1.10;0.60;;;;;;;;;;4553768;28;20071;-58
2021/08/27 03:57:35;;;;;;;1.67;0.90;;;;;;;;;;4538530;28;20036;-59
2021/08/27 03:59:46;;;;;;;2.28;0.90;;;;;;;;;;4537879;28;20037;-59
2021/08/27 04:01:58;;;;;;;1.60;0.70;;;;;;;;;;4536967;28;20033;-59
2021/08/27 04:04:08;;;;;;;2.05;0.88;;;;;;;;;;4537140;28;20072;-59
2021/08/27 04:06:18;;;;;;;2.63;0.73;;;;;;;;;;4554426;28;20048;-59
2021/08/27 04:08:31;;;;;;;2.43;0.80;;;;;;;;;;4537109;28;20136;-60
2021/08/27 04:10:41;;;;;;;1.60;0.98;;;;;;;;;;4536808;28;20120;-58
2021/08/27 04:12:52;;;;;;;2.77;0.80;;;;;;;;;;4538083;28;20040;-58
2021/08/27 04:15:03;;;;;;;1.73;0.90;;;;;;;;;;4538003;28;26739;-59
2021/08/27 04:17:13;;;;;;;2.20;0.82;;;;;;;;;;4553303;28;20286;-59
2021/08/27 04:19:24;;;;;;;3.23;0.93;;;;;;;;;;4538218;28;20174;-59
2021/08/27 04:21:34;;;;;;;1.90;0.90;;;;;;;;;;4538061;28;20374;-60
2021/08/27 04:23:45;;;;;;;1.20;0.77;;;;;;;;;;4517582;28;20060;-59
2021/08/27 04:25:55;;;;;;;1.37;0.80;;;;;;;;;;4538284;28;20048;-59
2021/08/27 04:28:06;;;;;;;2.63;0.90;;;;;;;;;;4538002;28;31973;-59
2021/08/27 04:30:16;;;;;;;1.90;0.83;;;;;;;;;;4535831;28;20032;-59
2021/08/27 04:32:27;;;;;;;1.77;0.90;;;;;;;;;;4537536;28;20021;-59
2021/08/27 04:34:37;;;;;;;2.23;1.10;;;;;;;;;;4536184;28;20119;-59
2021/08/27 04:36:47;;;;;;;2.67;1.00;;;;;;;;;;4536992;28;20041;-59
2021/08/27 04:38:59;;;;;;;1.90;0.70;;;;;;;;;;4537580;28;20110;-58
2021/08/27 04:41:09;;;;;;;2.00;0.90;;;;;;;;;;4537276;28;29914;-59
2021/08/27 04:43:19;;;;;;;1.57;0.70;;;;;;;;;;4537810;28;20107;-59
2021/08/27 04:45:30;;;;;;;1.20;0.80;;;;;;;;;;4537602;28;22925;-59
2021/08/27 04:47:41;;;;;;;2.20;0.90;;;;;;;;;;4536603;28;20041;-59
2021/08/27 04:49:51;;;;;;;1.47;0.83;;;;;;;;;;4534935;28;20029;-59
2021/08/27 04:52:02;;;;;;;1.83;0.80;;;;;;;;;;4539378;28;20494;-58
2021/08/27 04:54:12;;;;;;;2.17;0.90;;;;;;;;;;4540887;28;20024;-59
2021/08/27 04:56:22;;;;;;;1.60;0.87;;;;;;;;;;4539352;28;20041;-58
2021/08/27 04:58:33;;;;;;;1.57;0.87;;;;;;;;;;4540894;28;20419;-59
2021/08/27 05:00:43;;;;;;;1.03;0.70;;;;;;;;;;4540970;28;20049;-59
2021/08/27 05:02:54;;;;;;;2.57;0.90;;;;;;;;;;4538556;28;21747;-57
2021/08/27 05:05:05;;;;;;;1.90;1.00;;;;;;;;;;4540878;28;23497;-57
2021/08/27 05:07:15;;;;;;;;;;;;;;;;;;4539765;28;20596;-57
2021/08/27 05:09:26;;;;;;;1.20;0.80;;;;;;;;;;4556761;28;19916;-58
2021/08/27 05:11:36;;;;;;;1.53;0.80;;;;;;;;;;4540627;28;20112;-58
2021/08/27 05:13:47;;;;;;;2.00;0.90;;;;;;;;;;4540822;28;20037;-58
2021/08/27 05:15:57;;;;;;;1.60;0.90;;;;;;;;;;4539817;28;28397;-57
2021/08/27 05:18:08;;;;;;;1.97;0.80;;;;;;;;;;4539711;28;31701;-58
2021/08/27 05:20:18;;;;;;;1.90;0.80;;;;;;;;;;4540674;28;20466;-58
2021/08/27 05:22:28;;;;;;;3.10;1.03;;;;;;;;;;4540094;28;20547;-58
2021/08/27 05:24:39;;;;;;;2.07;1.10;;;;;;;;;;4540164;28;20120;-58
2021/08/27 05:26:49;;;;;;;3.13;1.20;;;;;;;;;;4540325;28;20069;-57
2021/08/27 05:29:01;;;;;;;3.07;0.93;;;;;;;;;;4556200;28;20060;-57
2021/08/27 05:31:12;;;;;;;1.77;1.08;;;;;;;;;;4539727;28;20238;-58
2021/08/27 05:33:22;;;;;;;2.13;1.08;;;;;;;;;;4540763;28;20056;-58
2021/08/27 05:35:32;;;;;;;2.43;1.10;;;;;;;;;;4539721;28;20082;-57
2021/08/27 05:37:43;;;;;;;3.00;1.20;;;;;;;;;;4539823;28;27059;-58
2021/08/27 05:39:53;;;;;;;2.37;1.20;;;;;;;;;;4540271;28;20550;-58
2021/08/27 05:42:04;;;;;;;3.40;1.40;;;;;;;;;;4539445;28;20033;-58
2021/08/27 05:44:15;;;;;;;2.43;1.17;;;;;;;;;;4539945;28;20037;-58
2021/08/27 05:46:25;;;;;;;2.70;1.20;;;;;;;;;;4540256;28;20287;-58
2021/08/27 05:48:35;;;;;;;3.10;1.27;;;;;;;;;;4538152;28;30336;-57
2021/08/27 05:50:47;;;;;;;1.80;1.03;;;;;;;;;;4539661;28;20033;-58
2021/08/27 05:52:58;;;;;;;3.00;1.20;;;;;;;;;;4539573;28;20553;-58
2021/08/27 05:55:10;;;;;;;2.70;1.40;;;;;;;;;;4539765;28;20033;-57
2021/08/27 05:57:20;;;;;;;2.97;1.10;;;;;;;;;;4528404;28;20142;-58
2021/08/27 05:59:31;;;;;;;3.33;1.20;;;;;;;;;;4536717;28;20160;-58
2021/08/27 06:01:41;;;;;;;2.38;0.93;;;;;;;;;;4539692;28;20041;-58
2021/08/27 06:03:52;;;;;;;2.73;0.87;;;;;;;;;;4539214;28;20029;-59
2021/08/27 06:06:02;;;;;;;1.20;0.80;;;;;;;;;;4539191;28;20041;-57
2021/08/27 06:08:13;;;;;;;3.33;1.30;;;;;;;;;;4539398;28;20116;-57
2021/08/27 06:10:23;;;;;;;2.17;1.10;;;;;;;;;;4539496;28;20041;-57
2021/08/27 06:12:34;;;;;;;2.57;1.10;;;;;;;;;;4538573;28;20029;-57
2021/08/27 06:14:44;;;;;;;2.53;1.10;;;;;;;;;;4555419;28;20090;-58
2021/08/27 06:16:55;;;;;;;2.27;1.20;;;;;;;;;;4539393;28;20037;-58
2021/08/27 06:19:05;;;;;;;2.20;1.30;;;;;;;;;;4539798;28;20055;-58
2021/08/27 06:21:16;;;;;;;2.20;1.17;;;;;;;;;;4538076;28;20139;-58
2021/08/27 06:23:26;;;;;;;2.90;1.30;;;;;;;;;;4538968;28;20033;-58
2021/08/27 06:25:39;;;;;;;2.47;1.30;;;;;;;;;;4538657;28;20029;-58
2021/08/27 06:27:49;;;;;;;1.85;1.10;;;;;;;;;;4539397;28;20041;-58
2021/08/27 06:30:00;;;;;;;2.17;1.10;;;;;;;;;;4539136;28;20021;-58
2021/08/27 06:32:11;;;;;;;1.77;1.00;;;;;;;;;;4554668;28;20070;-58
2021/08/27 06:34:21;;;;;;;1.63;1.10;;;;;;;;;;4538907;28;20115;-59
2021/08/27 06:36:31;;;;;;;1.53;0.90;;;;;;;;;;4538992;28;20039;-58
2021/08/27 06:38:42;;;;;;;2.20;1.10;;;;;;;;;;4519880;28;20462;-58
2021/08/27 06:40:58;;;;;;;1.63;0.90;;;;;;;;;;4537782;28;20033;-59
2021/08/27 06:43:09;;;;;;;3.28;1.42;;;;;;;;;;4537959;28;20033;-58
2021/08/27 06:45:19;;;;;;;2.97;1.10;;;;;;;;;;4539144;28;20041;-58
2021/08/27 06:47:30;;;;;;;1.57;1.00;;;;;;;;;;4538520;28;20116;-58
2021/08/27 06:49:40;;;;;;;3.03;0.90;;;;;;;;;;4536578;28;20068;-59
2021/08/27 06:51:50;;;;;;;2.13;0.80;;;;;;;;;;4538675;28;20478;-58
2021/08/27 06:54:01;;;;;;;1.30;0.80;;;;;;;;;;4537333;28;20123;-58
2021/08/27 06:56:11;;;;;;;2.23;1.00;;;;;;;;;;4538967;28;20119;-58
2021/08/27 06:58:22;;;;;;;1.10;0.80;;;;;;;;;;4538630;28;20037;-58
2021/08/27 07:00:33;;;;;;;1.37;0.70;;;;;;;;;;4538538;28;20036;-58
2021/08/27 07:02:43;;;;;;;1.40;0.82;;;;;;;;;;4538280;28;20294;-59
2021/08/27 07:04:54;;;;;;;1.70;0.97;;;;;;;;;;4538224;28;20393;-58
2021/08/27 07:07:04;;;;;;;3.43;1.13;;;;;;;;;;4537808;28;20049;-58
2021/08/27 07:09:14;;;;;;;2.57;0.90;;;;;;;;;;4536914;28;20732;-58
2021/08/27 07:11:25;;;;;;;3.50;1.10;;;;;;;;;;4537149;28;20069;-58
2021/08/27 07:13:35;;;;;;;1.97;0.83;;;;;;;;;;4538779;28;20099;-58
2021/08/27 07:15:46;;;;;;;2.37;1.10;;;;;;;;;;4553521;28;20055;-58
2021/08/27 07:17:56;;;;;;;2.90;1.20;;;;;;;;;;4539317;28;20029;-58
2021/08/27 07:20:07;;;;;;;1.83;0.90;;;;;;;;;;4538578;28;20687;-58
2021/08/27 07:22:18;;;;;;;1.77;0.82;;;;;;;;;;4538155;28;20064;-58
2021/08/27 07:24:28;;;;;;;1.40;0.87;;;;;;;;;;4537049;28;20047;-58
2021/08/27 07:26:39;;;;;;;1.73;1.00;;;;;;;;;;4538009;28;20053;-58
2021/08/27 07:28:49;;;;;;;2.33;1.10;;;;;;;;;;4538744;28;20103;-58
2021/08/27 07:30:59;;;;;;;1.77;1.10;;;;;;;;;;4538410;28;20551;-58
2021/08/27 07:33:10;;;;;;;1.93;1.00;;;;;;;;;;4538471;28;20044;-58
2021/08/27 07:35:20;;;;;;;1.33;0.70;;;;;;;;;;4538113;28;20033;-58
2021/08/27 07:37:31;;;;;;;2.07;1.10;;;;;;;;;;4536828;28;20072;-58
2021/08/27 07:39:42;;;;;;;2.95;1.15;;;;;;;;;;4538651;28;20175;-58
2021/08/27 07:41:52;;;;;;;2.17;1.23;;;;;;;;;;4537386;28;20182;-58
2021/08/27 07:44:03;;;;;;;1.33;1.07;;;;;;;;;;4538363;28;20037;-58
2021/08/27 07:46:13;;;;;;;2.27;1.20;;;;;;;;;;4538240;28;20045;-58
2021/08/27 07:48:25;;;;;;;1.60;1.10;;;;;;;;;;4538066;28;20070;-58
2021/08/27 07:50:36;;;;;;;2.60;1.20;;;;;;;;;;4536896;28;20039;-58
2021/08/27 07:52:46;;;;;;;3.13;1.43;;;;;;;;;;4538381;28;20044;-57
2021/08/27 07:54:56;;;;;;;1.93;1.40;;;;;;;;;;4538417;28;20040;-57
2021/08/27 07:57:07;;;;;;;2.47;1.37;;;;;;;;;;4535982;28;20045;-58
2021/08/27 07:59:17;;;;;;;2.23;1.30;;;;;;;;;;4537767;28;20103;-58
2021/08/27 08:01:28;;;;;;;2.57;1.30;;;;;;;;;;4538913;28;20045;-58
2021/08/27 08:03:38;;;;;;;3.30;1.43;;;;;;;;;;4536396;28;20037;-58
2021/08/27 08:05:49;;;;;;;2.77;1.50;;;;;;;;;;4537784;28;22680;-58
2021/08/27 08:07:59;;;;;;;2.87;1.30;;;;;;;;;;4538232;28;20033;-58
2021/08/27 08:10:10;;;;;;;2.17;1.20;;;;;;;;;;4553258;28;20043;-58
2021/08/27 08:12:21;;;;;;;3.15;1.38;;;;;;;;;;4537562;28;20156;-58
2021/08/27 08:14:31;;;;;;;2.10;1.20;;;;;;;;;;4538205;28;20043;-61
2021/08/27 08:16:42;;;;;;;2.27;1.50;;;;;;;;;;4535026;28;20052;-57
2021/08/27 08:18:52;;;;;;;2.90;1.30;;;;;;;;;;4537105;28;20493;-58
2021/08/27 08:21:03;;;;;;;2.67;1.10;;;;;;;;;;4538137;28;20047;-57
2021/08/27 08:23:14;;;;;;;2.47;1.10;;;;;;;;;;4537607;28;20041;-58
2021/08/27 08:25:24;;;;;;;2.97;1.27;;;;;;;;;;4537563;28;20036;-57
2021/08/27 08:27:35;;;;;;;3.20;1.20;;;;;;;;;;4555661;28;20040;-58
2021/08/27 08:29:45;;;;;;;2.67;1.30;;;;;;;;;;4539918;28;34323;-59
2021/08/27 08:31:56;;;;;;;1.97;1.20;;;;;;;;;;4540127;28;20033;-58
2021/08/27 08:34:06;;;;;;;2.43;1.40;;;;;;;;;;4540900;28;20033;-58
2021/08/27 08:36:17;;;;;;;2.50;1.23;;;;;;;;;;4556154;28;20036;-58
2021/08/27 08:38:28;;;;;;;3.45;1.23;;;;;;;;;;4533347;28;20786;-58
2021/08/27 08:40:42;;;;;;;2.13;1.10;;;;;;;;;;4540378;28;20485;-58
2021/08/27 08:42:53;;;;;;;2.78;1.42;;;;;;;;;;4522374;28;20986;-58
2021/08/27 08:45:04;;;;;;;3.73;1.47;;;;;;;;;;4541293;28;20025;-58
2021/08/27 08:47:16;;;;;;;2.53;1.35;;;;;;;;;;4541075;28;20789;-58
2021/08/27 08:49:29;;;;;;;2.95;1.27;;;;;;;;;;4539057;28;20044;-58
2021/08/27 08:51:49;;;;;;;2.65;1.20;;;;;;;;;;4539263;28;20115;-58
2021/08/27 08:54:00;;;;;;;2.30;1.20;;;;;;;;;;4540540;28;20048;-58
2021/08/27 08:56:12;;;;;;;2.67;1.00;;;;;;;;;;4540286;28;20052;-58
2021/08/27 08:58:23;;;;;;;3.03;1.35;;;;;;;;;;4538512;28;20647;-58
2021/08/27 09:00:34;;;;;;;2.50;1.20;;;;;;;;;;4536616;28;20112;-58
2021/08/27 09:02:44;;;;;;;1.98;1.10;;;;;;;;;;4538305;28;20490;-58
2021/08/27 09:04:55;;;;;;;1.77;1.10;;;;;;;;;;4537860;28;20029;-58
2021/08/27 09:07:05;;;;;;;2.60;1.40;;;;;;;;;;4540730;28;20045;-61
2021/08/27 09:09:30;;;;;;;2.73;1.03;;;;;;;;;;4540488;28;20044;-60
2021/08/27 09:11:40;;;;;;;1.52;0.98;;;;;;;;;;4540820;28;20872;-61
2021/08/27 09:13:54;;;;;;;1.67;1.10;;;;;;;;;;4540115;28;20045;-58
2021/08/27 09:16:08;;;;;;;2.78;0.98;;;;;;;;;;4540161;28;20102;-59
2021/08/27 09:18:19;;;;;;;1.80;1.10;;;;;;;;;;4539895;28;20044;-58
2021/08/27 09:20:29;;;;;;;1.30;1.00;;;;;;;;;;4539078;28;21094;-58
2021/08/27 09:22:49;;;;;;;3.53;1.20;;;;;;;;;;4538680;28;20037;-59
2021/08/27 09:25:07;;;;;;;1.70;1.25;;;;;;;;;;4540348;28;20032;-58
2021/08/27 09:27:18;;;;;;;2.38;0.90;;;;;;;;;;4536371;28;20590;-57
2021/08/27 09:29:39;;;;;;;1.97;1.20;;;;;;;;;;4540538;28;20301;-58
2021/08/27 09:31:49;;;;;;;1.85;0.90;;;;;;;;;;4539911;28;20207;-59
2021/08/27 09:34:00;;;;;;;1.13;0.80;;;;;;;;;;4532827;28;22081;-58
2021/08/27 09:36:11;;;;;;;2.30;1.07;;;;;;;;;;4540276;28;20035;-58
2021/08/27 09:38:25;;;;;;;2.28;1.00;;;;;;;;;;4538626;28;20037;-58
2021/08/27 09:40:35;;;;;;;1.27;0.75;;;;;;;;;;4538787;28;20585;-59
2021/08/27 09:42:50;;;;;;;2.30;0.93;;;;;;;;;;4540252;28;20037;-59
2021/08/27 09:45:00;;;;;;;1.95;0.95;;;;;;;;;;4539105;28;20583;-61
2021/08/27 09:47:11;;;;;;;1.53;0.80;;;;;;;;;;4538194;28;20698;-63
2021/08/27 09:49:28;;;;;;;2.63;0.87;;;;;;;;;;4540231;28;20115;-63
2021/08/27 09:51:48;;;;;;;2.33;1.00;;;;;;;;;;4539804;28;20131;-62
2021/08/27 09:53:58;;;;;;;1.50;0.70;;;;;;;;;;4540177;28;20104;-62
2021/08/27 09:56:09;;;;;;;2.17;0.90;;;;;;;;;;4540106;28;20521;-62
2021/08/27 09:58:19;;;;;;;2.77;1.00;;;;;;;;;;4539307;28;20025;-60
2021/08/27 10:00:33;;;;;;;1.47;0.70;;;;;;;;;;4546992;28;20086;-61
2021/08/27 10:02:43;;;;;;;2.10;0.88;;;;;;;;;;4538311;28;20037;-61
2021/08/27 10:04:57;;;;;;;1.43;0.80;;;;;;;;;;4538540;28;20025;-61
2021/08/27 10:07:45;;;;;;;1.30;0.75;;;;;;;;;;4548081;28;20933;-61
2021/08/27 10:10:00;;;;;;;1.77;0.80;;;;;;;;;;4539598;28;20114;-62
2021/08/27 10:12:12;;;;;;;0.88;0.77;;;;;;;;;;4538415;28;20131;-61
2021/08/27 10:14:23;;;;;;;2.15;0.95;;;;;;;;;;4538257;28;20154;-62
2021/08/27 10:16:33;;;;;;;2.65;1.00;;;;;;;;;;4540015;28;20064;-61
2021/08/27 10:18:44;;;;;;;1.27;0.70;;;;;;;;;;4555331;28;20104;-62
2021/08/27 10:20:54;;;;;;;2.23;0.77;;;;;;;;;;4540114;28;20667;-62
2021/08/27 10:23:09;;;;;;;0.87;0.60;;;;;;;;;;4539431;28;20033;-61
2021/08/27 10:25:20;;;;;;;1.20;0.65;;;;;;;;;;4539609;28;20059;-62
2021/08/27 10:27:30;;;;;;;1.37;0.77;;;;;;;;;;4538541;28;20044;-62
2021/08/27 10:29:52;;;;;;;1.27;0.70;;;;;;;;;;4538236;28;20039;-62
2021/08/27 10:32:03;;;;;;;;;;;;;;;;;;4555587;28;20067;-61
2021/08/27 10:34:14;;;;;;;2.53;0.77;;;;;;;;;;4539913;28;20015;-62
2021/08/27 10:36:25;;;;;;;1.90;0.90;;;;;;;;;;4539629;28;20037;-62
2021/08/27 10:38:42;;;;;;;2.50;0.90;;;;;;;;;;4539308;28;20033;-62
2021/08/27 10:41:08;;;;;;;1.63;0.75;;;;;;;;;;4539600;28;20060;-61
2021/08/27 10:43:18;;;;;;;2.22;0.80;;;;;;;;;;4540002;28;20043;-62
2021/08/27 10:45:41;;;;;;;1.63;0.80;;;;;;;;;;4538970;28;20040;-62
2021/08/27 10:48:08;;;;;;;1.90;0.77;;;;;;;;;;4554297;28;21272;-62
2021/08/27 10:50:28;;;;;;;1.92;0.80;;;;;;;;;;4538574;28;20600;-62
2021/08/27 10:52:39;;;;;;;1.90;0.80;;;;;;;;;;4538116;28;20040;-62
2021/08/27 10:55:13;;;;;;;2.07;0.90;;;;;;;;;;4538586;28;20040;-62
2021/08/27 10:57:24;;;;;;;2.20;0.90;;;;;;;;;;4537832;28;20572;-61
2021/08/27 10:59:37;;;;;;;2.67;1.17;;;;;;;;;;4537087;28;20033;-61
2021/08/27 11:02:01;;;;;;;1.70;0.80;;;;;;;;;;4538503;28;20803;-62
2021/08/27 11:04:25;;;;;;;1.05;0.60;;;;;;;;;;4539112;28;20036;-62
2021/08/27 11:06:55;;;;;;;1.92;0.82;;;;;;;;;;4536892;28;20052;-62
2021/08/27 11:09:20;;;;;;;1.23;0.80;;;;;;;;;;4538271;28;20033;-62
2021/08/27 11:11:31;;;;;;;1.63;0.85;;;;;;;;;;4539010;28;20627;-62
2021/08/27 11:13:41;;;;;;;2.60;0.80;;;;;;;;;;4539191;28;20132;-61
2021/08/27 11:15:53;;;;;;;0.93;0.70;;;;;;;;;;4520200;28;20028;-62
2021/08/27 11:18:20;;;;;;;1.40;0.73;;;;;;;;;;4537743;28;20521;-62
2021/08/27 11:20:30;;;;;;;1.27;0.70;;;;;;;;;;4537060;28;20033;-62
2021/08/27 11:22:52;;;;;;;1.73;0.80;;;;;;;;;;4536200;28;20049;-62
2021/08/27 11:25:03;;;;;;;0.77;0.60;;;;;;;;;;4554080;28;20036;-61
2021/08/27 11:27:17;;;;;;;1.20;0.50;;;;;;;;;;4537848;28;20040;-61
2021/08/27 11:29:29;;;;;;;1.45;0.55;;;;;;;;;;4538085;28;20287;-63
2021/08/27 11:31:42;;;;;;;0.30;0.30;;;;;;;;;;4537739;28;20040;-62
2021/08/27 11:33:53;;;;;;;0.60;0.38;;;;;;;;;;4538157;28;20033;-62
2021/08/27 11:36:04;;;;;;;0.90;0.60;;;;;;;;;;4538446;28;20037;-61
2021/08/27 11:38:14;;;;;;;1.83;0.60;;;;;;;;;;4520682;28;20117;-59
2021/08/27 11:40:25;;;;;;;1.10;0.70;;;;;;;;;;4537977;28;20268;-59
2021/08/27 11:42:37;;;;;;;1.85;0.68;;;;;;;;;;4538329;28;20044;-61
2021/08/27 11:45:04;;;;;;;1.58;0.60;;;;;;;;;;4528592;28;20037;-61
2021/08/27 11:47:15;;;;;;;1.80;0.70;;;;;;;;;;4536535;28;20053;-74
2021/08/27 11:49:27;;;;;;;1.77;0.90;;;;;;;;;;4552845;28;25619;-62
2021/08/27 11:51:47;;;;;;;1.75;0.75;;;;;;;;;;4537920;28;20111;-62
2021/08/27 11:53:57;;;;;;;1.23;0.65;;;;;;;;;;4536113;28;20055;-61
2021/08/27 11:56:08;;;;;;;1.27;0.70;;;;;;;;;;4538127;28;21836;-61
2021/08/27 11:58:18;;;;;;;1.77;0.70;;;;;;;;;;4553688;28;20029;-61
2021/08/27 12:00:36;;;;;;;1.57;0.77;;;;;;;;;;4537121;28;20519;-61
2021/08/27 12:02:53;;;;;;;0.85;0.60;;;;;;;;;;4536683;28;20087;-61
2021/08/27 12:05:12;;;;;;;1.42;0.63;;;;;;;;;;4538133;28;20064;-62
2021/08/27 12:07:27;;;;;;;1.65;0.63;;;;;;;;;;4536744;28;20045;-62
2021/08/27 12:09:38;;;;;;;1.65;0.68;;;;;;;;;;4519602;28;20041;-62
2021/08/27 12:11:48;;;;;;;2.38;0.80;;;;;;;;;;4535434;28;20029;-62
2021/08/27 12:14:00;;;;;;;2.07;0.80;;;;;;;;;;4551811;28;27286;-62
2021/08/27 12:16:10;;;;;;;;;;;;;;;;;;4552865;28;20474;-62
2021/08/27 12:18:21;;;;;;;1.15;0.60;;;;;;;;;;4535980;28;19921;-63
2021/08/27 12:20:32;;;;;;;1.90;0.80;;;;;;;;;;4537166;28;23994;-62
2021/08/27 12:22:44;;;;;;;1.38;0.80;;;;;;;;;;4537145;28;20033;-66
2021/08/27 12:24:55;;;;;;;1.33;0.70;;;;;;;;;;4537116;28;20021;-64
2021/08/27 12:27:06;;;;;;;0.70;0.50;;;;;;;;;;4553556;28;20934;-64
2021/08/27 12:29:16;;;;;;;1.10;0.70;;;;;;;;;;4535486;28;20041;-64
2021/08/27 12:31:37;;;;;;;1.03;0.80;;;;;;;;;;4537248;28;20029;-61
2021/08/27 12:33:49;;;;;;;1.17;0.80;;;;;;;;;;4537785;28;20267;-62
2021/08/27 12:35:59;;;;;;;;;;;;;;;;;;4537299;28;37302;-62
2021/08/27 12:38:10;;;;;;;1.23;0.70;;;;;;;;;;4537127;28;19916;-62
2021/08/27 12:40:23;;;;;;;0.70;0.43;;;;;;;;;;4535797;28;20123;-62
2021/08/27 12:42:34;;;;;;;1.88;0.90;;;;;;;;;;4551883;28;20674;-62
2021/08/27 12:45:04;;;;;;;1.47;0.70;;;;;;;;;;4517836;28;20034;-63
2021/08/27 12:47:36;;;;;;;1.10;0.60;;;;;;;;;;4553396;28;21658;-63
2021/08/27 12:50:02;;;;;;;1.77;0.63;;;;;;;;;;4545413;28;20102;-63
2021/08/27 12:52:12;;;;;;;2.17;0.75;;;;;;;;;;4536844;28;20139;-65
2021/08/27 12:54:23;;;;;;;1.07;0.57;;;;;;;;;;4537475;28;29278;-63
2021/08/27 12:56:35;;;;;;;1.25;0.85;;;;;;;;;;4536244;28;20435;-63
2021/08/27 12:58:47;;;;;;;1.80;0.70;;;;;;;;;;4537387;28;20048;-63
2021/08/27 13:01:18;;;;;;;1.02;0.60;;;;;;;;;;4537092;28;20048;-62
2021/08/27 13:03:38;;;;;;;1.13;0.68;;;;;;;;;;4537436;28;20052;-62
2021/08/27 13:05:50;;;;;;;1.45;0.70;;;;;;;;;;4538080;28;20194;-62
2021/08/27 13:08:10;;;;;;;0.85;0.60;;;;;;;;;;4537102;28;20112;-62
2021/08/27 13:10:22;;;;;;;1.38;0.60;;;;;;;;;;4538282;28;20021;-62
2021/08/27 13:12:33;;;;;;;0.68;0.50;;;;;;;;;;4532252;28;20033;-62
2021/08/27 13:14:43;;;;;;;0.67;0.50;;;;;;;;;;4556314;28;20036;-62
2021/08/27 13:17:05;;;;;;;1.57;0.60;;;;;;;;;;4540137;28;26311;-62